Airfield :







YOU CAN JOIN US ON...

 
LOGIN :

Register | Disclaimer

   EN    FR    IT 

 









Legend :    VFR   Marginal VFR   IFR   Intensive IFR   Very Intensive IFR
Visi :
Ceiling :
>= 8 km
>= 3000ft
5 to 8 km
1000 to 3000 ft
1500m to 5 km
500 to 1000 ft
800 to 1500m
200 to 500 ft
< 800m
< 200 ft
Symbols :   Thunderstorms  Fog  Heavy snow  Heavy precipitations  Wind > 20 kt







- Airport Elevation : 228 ft


KFSO - Franklin County State

CURRENT METAR :
  • 250415Z AUTO 00000KT 10SM SCT019 OVC023 06/06 A2990 RMK AO2 T00560055

EXPIRED METARs :
  • 250355Z AUTO 00000KT 10SM SCT018 OVC023 06/06 A2990 RMK AO2 T00560055
  • 250335Z AUTO 00000KT 10SM SCT009 SCT012 OVC023 06/06 A2990 RMK AO2 T00570056
  • 250316Z AUTO 00000KT 10SM BKN009 BKN017 OVC024 06/06 A2990 RMK AO2 T00580057
  • 250255Z AUTO 00000KT 7SM -DZ SCT008 BKN013 OVC018 06/06 A2990 RMK AO2 T00570056
  • 250235Z AUTO 00000KT 10SM -DZ SCT009 OVC014 06/06 A2990 RMK AO2 T00570055
  • 250215Z AUTO 00000KT 10SM SCT009 BKN014 OVC033 06/06 A2990 RMK AO2 T00580055
  • 250155Z AUTO 00000KT 10SM SCT009 BKN028 OVC035 06/06 A2990 RMK AO2 T00580055
  • 250135Z AUTO 00000KT 10SM SCT009 BKN013 OVC031 06/06 A2990 RMK AO2 T00590055

TAF N/A
KZBW FIR / North America



MET'MAP, your aeronautical weather chart ! - Copyright ORBIFLY December 2007 - Disclaimer

ORBIFLY MET'MAP TEAM :

Programming & Development : Alexandra Zaïnal
Concept & Development : Baudouin d'Aumeries
Co-Development & Prog : Marc-Olivier Méhu
Technical & hardware support : Manuel Goepfert

Contact : metmap@orbifly.com




SOURCES & CREDITS :

   NOAA